sensor_id;sensor_type;location;lat;lon;timestamp;P1;durP1;ratioP1;P2;durP2;ratioP2
2644;SDS011;15377;48.540;9.268;2022-07-29T00:00:10;16.00;;;14.40;;
2644;SDS011;15377;48.540;9.268;2022-07-29T00:02:36;15.60;;;14.00;;
2644;SDS011;15377;48.540;9.268;2022-07-29T00:05:02;17.10;;;15.30;;
2644;SDS011;15377;48.540;9.268;2022-07-29T00:07:29;16.23;;;14.63;;
2644;SDS011;15377;48.540;9.268;2022-07-29T00:09:54;20.33;;;15.13;;
2644;SDS011;15377;48.540;9.268;2022-07-29T00:12:21;15.27;;;13.50;;
2644;SDS011;15377;48.540;9.268;2022-07-29T00:14:48;12.53;;;11.20;;
2644;SDS011;15377;48.540;9.268;2022-07-29T00:17:14;11.73;;;9.80;;
2644;SDS011;15377;48.540;9.268;2022-07-29T00:19:40;10.00;;;8.70;;
2644;SDS011;15377;48.540;9.268;2022-07-29T00:22:06;9.70;;;8.20;;
2644;SDS011;15377;48.540;9.268;2022-07-29T00:24:31;9.30;;;8.23;;
2644;SDS011;15377;48.540;9.268;2022-07-29T00:26:57;12.30;;;7.00;;
2644;SDS011;15377;48.540;9.268;2022-07-29T00:29:22;10.07;;;7.37;;
2644;SDS011;15377;48.540;9.268;2022-07-29T00:31:48;9.13;;;7.27;;
2644;SDS011;15377;48.540;9.268;2022-07-29T00:34:13;8.10;;;6.70;;
2644;SDS011;15377;48.540;9.268;2022-07-29T00:36:57;9.70;;;7.23;;
2644;SDS011;15377;48.540;9.268;2022-07-29T00:39:22;10.70;;;6.30;;
2644;SDS011;15377;48.540;9.268;2022-07-29T00:41:48;8.30;;;6.90;;
2644;SDS011;15377;48.540;9.268;2022-07-29T00:44:14;9.30;;;6.80;;
2644;SDS011;15377;48.540;9.268;2022-07-29T00:46:39;8.13;;;6.33;;
2644;SDS011;15377;48.540;9.268;2022-07-29T00:49:05;9.00;;;7.00;;
2644;SDS011;15377;48.540;9.268;2022-07-29T00:51:32;8.57;;;7.00;;
2644;SDS011;15377;48.540;9.268;2022-07-29T00:53:59;8.90;;;6.90;;
2644;SDS011;15377;48.540;9.268;2022-07-29T00:56:24;9.13;;;7.00;;
2644;SDS011;15377;48.540;9.268;2022-07-29T00:58:50;7.80;;;6.20;;
2644;SDS011;15377;48.540;9.268;2022-07-29T01:01:15;8.70;;;7.23;;
2644;SDS011;15377;48.540;9.268;2022-07-29T01:03:41;8.70;;;6.80;;
2644;SDS011;15377;48.540;9.268;2022-07-29T01:06:06;9.50;;;6.90;;
2644;SDS011;15377;48.540;9.268;2022-07-29T01:08:32;8.40;;;6.70;;
2644;SDS011;15377;48.540;9.268;2022-07-29T01:10:59;9.13;;;6.80;;
2644;SDS011;15377;48.540;9.268;2022-07-29T01:13:26;9.03;;;7.00;;
2644;SDS011;15377;48.540;9.268;2022-07-29T01:15:56;10.20;;;7.80;;
2644;SDS011;15377;48.540;9.268;2022-07-29T01:18:32;9.20;;;7.60;;
2644;SDS011;15377;48.540;9.268;2022-07-29T01:26:31;10.47;;;7.60;;
2644;SDS011;15377;48.540;9.268;2022-07-29T01:29:17;9.97;;;8.20;;
2644;SDS011;15377;48.540;9.268;2022-07-29T01:31:56;10.03;;;8.50;;
2644;SDS011;15377;48.540;9.268;2022-07-29T01:34:30;10.10;;;8.03;;
2644;SDS011;15377;48.540;9.268;2022-07-29T01:37:06;9.00;;;7.70;;
2644;SDS011;15377;48.540;9.268;2022-07-29T01:39:34;10.63;;;8.10;;
2644;SDS011;15377;48.540;9.268;2022-07-29T01:42:10;9.30;;;8.00;;
2644;SDS011;15377;48.540;9.268;2022-07-29T01:47:37;9.70;;;6.50;;
2644;SDS011;15377;48.540;9.268;2022-07-29T01:50:08;8.83;;;7.07;;
2644;SDS011;15377;48.540;9.268;2022-07-29T01:52:47;10.67;;;7.37;;
2644;SDS011;15377;48.540;9.268;2022-07-29T01:55:19;9.00;;;7.77;;
2644;SDS011;15377;48.540;9.268;2022-07-29T01:57:47;11.87;;;8.90;;
2644;SDS011;15377;48.540;9.268;2022-07-29T02:00:14;10.80;;;9.33;;
2644;SDS011;15377;48.540;9.268;2022-07-29T02:02:42;10.63;;;9.30;;
2644;SDS011;15377;48.540;9.268;2022-07-29T02:05:11;11.40;;;8.60;;
2644;SDS011;15377;48.540;9.268;2022-07-29T02:07:40;10.23;;;8.37;;
2644;SDS011;15377;48.540;9.268;2022-07-29T02:10:07;10.20;;;8.00;;
2644;SDS011;15377;48.540;9.268;2022-07-29T02:12:35;12.13;;;8.30;;
2644;SDS011;15377;48.540;9.268;2022-07-29T02:15:03;11.73;;;8.60;;
2644;SDS011;15377;48.540;9.268;2022-07-29T02:17:35;9.83;;;8.40;;
2644;SDS011;15377;48.540;9.268;2022-07-29T02:20:11;10.80;;;8.63;;
2644;SDS011;15377;48.540;9.268;2022-07-29T02:22:38;10.47;;;8.50;;
2644;SDS011;15377;48.540;9.268;2022-07-29T02:25:05;10.10;;;7.97;;
2644;SDS011;15377;48.540;9.268;2022-07-29T02:27:33;9.40;;;7.57;;
2644;SDS011;15377;48.540;9.268;2022-07-29T02:30:00;10.20;;;8.20;;
2644;SDS011;15377;48.540;9.268;2022-07-29T02:32:27;10.60;;;7.97;;
2644;SDS011;15377;48.540;9.268;2022-07-29T02:34:54;10.10;;;8.43;;
2644;SDS011;15377;48.540;9.268;2022-07-29T02:37:21;9.37;;;7.70;;
2644;SDS011;15377;48.540;9.268;2022-07-29T02:39:48;10.80;;;9.20;;
2644;SDS011;15377;48.540;9.268;2022-07-29T02:42:18;11.23;;;8.07;;
2644;SDS011;15377;48.540;9.268;2022-07-29T02:44:47;10.10;;;8.20;;
2644;SDS011;15377;48.540;9.268;2022-07-29T02:47:16;11.47;;;8.87;;
2644;SDS011;15377;48.540;9.268;2022-07-29T02:49:55;11.70;;;8.47;;
2644;SDS011;15377;48.540;9.268;2022-07-29T02:52:22;11.50;;;8.70;;
2644;SDS011;15377;48.540;9.268;2022-07-29T02:55:00;11.40;;;10.20;;
2644;SDS011;15377;48.540;9.268;2022-07-29T02:57:33;13.10;;;9.43;;
2644;SDS011;15377;48.540;9.268;2022-07-29T03:00:05;11.23;;;9.10;;
2644;SDS011;15377;48.540;9.268;2022-07-29T03:02:34;11.67;;;10.20;;
2644;SDS011;15377;48.540;9.268;2022-07-29T03:05:03;11.87;;;8.63;;
2644;SDS011;15377;48.540;9.268;2022-07-29T03:07:31;12.23;;;10.00;;
2644;SDS011;15377;48.540;9.268;2022-07-29T03:09:58;10.43;;;9.33;;
2644;SDS011;15377;48.540;9.268;2022-07-29T03:12:24;10.53;;;8.90;;
2644;SDS011;15377;48.540;9.268;2022-07-29T03:14:51;10.97;;;9.10;;
2644;SDS011;15377;48.540;9.268;2022-07-29T03:17:18;10.50;;;9.30;;
2644;SDS011;15377;48.540;9.268;2022-07-29T03:19:44;12.50;;;8.80;;
2644;SDS011;15377;48.540;9.268;2022-07-29T03:22:10;11.80;;;9.47;;
2644;SDS011;15377;48.540;9.268;2022-07-29T03:24:36;12.20;;;10.47;;
2644;SDS011;15377;48.540;9.268;2022-07-29T03:27:02;12.27;;;9.77;;
2644;SDS011;15377;48.540;9.268;2022-07-29T03:29:29;11.90;;;9.77;;
2644;SDS011;15377;48.540;9.268;2022-07-29T03:31:55;11.53;;;9.33;;
2644;SDS011;15377;48.540;9.268;2022-07-29T03:34:21;11.90;;;8.90;;
2644;SDS011;15377;48.540;9.268;2022-07-29T03:36:47;10.30;;;8.60;;
2644;SDS011;15377;48.540;9.268;2022-07-29T03:39:14;12.57;;;9.70;;
2644;SDS011;15377;48.540;9.268;2022-07-29T03:41:42;12.17;;;9.90;;
2644;SDS011;15377;48.540;9.268;2022-07-29T03:44:10;13.77;;;9.77;;
2644;SDS011;15377;48.540;9.268;2022-07-29T03:46:38;11.77;;;10.10;;
2644;SDS011;15377;48.540;9.268;2022-07-29T03:49:06;12.70;;;9.60;;
2644;SDS011;15377;48.540;9.268;2022-07-29T03:51:33;11.23;;;9.00;;
2644;SDS011;15377;48.540;9.268;2022-07-29T03:54:00;11.63;;;9.70;;
2644;SDS011;15377;48.540;9.268;2022-07-29T03:56:27;12.50;;;11.20;;
2644;SDS011;15377;48.540;9.268;2022-07-29T03:58:54;13.40;;;10.90;;
2644;SDS011;15377;48.540;9.268;2022-07-29T04:01:20;13.93;;;12.43;;
2644;SDS011;15377;48.540;9.268;2022-07-29T04:03:47;14.97;;;12.67;;
2644;SDS011;15377;48.540;9.268;2022-07-29T04:06:13;13.53;;;11.97;;
2644;SDS011;15377;48.540;9.268;2022-07-29T04:08:39;15.30;;;12.53;;
2644;SDS011;15377;48.540;9.268;2022-07-29T04:11:04;13.37;;;11.50;;
2644;SDS011;15377;48.540;9.268;2022-07-29T04:13:31;14.23;;;11.40;;
2644;SDS011;15377;48.540;9.268;2022-07-29T04:15:57;14.73;;;12.50;;
2644;SDS011;15377;48.540;9.268;2022-07-29T04:18:23;12.83;;;10.47;;
2644;SDS011;15377;48.540;9.268;2022-07-29T04:20:48;15.00;;;11.63;;
2644;SDS011;15377;48.540;9.268;2022-07-29T04:23:14;13.93;;;11.80;;
2644;SDS011;15377;48.540;9.268;2022-07-29T04:25:40;17.37;;;12.30;;
2644;SDS011;15377;48.540;9.268;2022-07-29T04:28:07;12.00;;;10.40;;
2644;SDS011;15377;48.540;9.268;2022-07-29T04:30:33;13.70;;;11.30;;
2644;SDS011;15377;48.540;9.268;2022-07-29T04:33:00;13.77;;;11.57;;
2644;SDS011;15377;48.540;9.268;2022-07-29T04:35:27;17.07;;;12.60;;
2644;SDS011;15377;48.540;9.268;2022-07-29T04:37:53;14.40;;;11.67;;
2644;SDS011;15377;48.540;9.268;2022-07-29T04:40:19;14.40;;;12.87;;
2644;SDS011;15377;48.540;9.268;2022-07-29T04:42:44;16.27;;;13.30;;
2644;SDS011;15377;48.540;9.268;2022-07-29T04:45:10;13.63;;;11.33;;
2644;SDS011;15377;48.540;9.268;2022-07-29T04:47:35;14.03;;;11.70;;
2644;SDS011;15377;48.540;9.268;2022-07-29T04:50:01;17.90;;;13.13;;
2644;SDS011;15377;48.540;9.268;2022-07-29T04:52:26;19.77;;;13.50;;
2644;SDS011;15377;48.540;9.268;2022-07-29T04:54:52;14.47;;;12.97;;
2644;SDS011;15377;48.540;9.268;2022-07-29T04:57:17;15.53;;;13.13;;
2644;SDS011;15377;48.540;9.268;2022-07-29T04:59:42;15.83;;;12.60;;
2644;SDS011;15377;48.540;9.268;2022-07-29T05:02:08;17.13;;;13.37;;
2644;SDS011;15377;48.540;9.268;2022-07-29T05:04:34;15.20;;;13.30;;
2644;SDS011;15377;48.540;9.268;2022-07-29T05:06:59;17.77;;;12.67;;
2644;SDS011;15377;48.540;9.268;2022-07-29T05:09:24;16.03;;;14.00;;
2644;SDS011;15377;48.540;9.268;2022-07-29T05:11:50;15.57;;;13.77;;
2644;SDS011;15377;48.540;9.268;2022-07-29T05:14:15;16.10;;;12.70;;
2644;SDS011;15377;48.540;9.268;2022-07-29T05:16:40;16.93;;;13.03;;
2644;SDS011;15377;48.540;9.268;2022-07-29T05:19:08;16.60;;;14.50;;
2644;SDS011;15377;48.540;9.268;2022-07-29T05:21:33;15.80;;;12.83;;
2644;SDS011;15377;48.540;9.268;2022-07-29T05:23:59;15.80;;;12.80;;
2644;SDS011;15377;48.540;9.268;2022-07-29T05:26:24;13.40;;;12.00;;
2644;SDS011;15377;48.540;9.268;2022-07-29T05:28:49;13.33;;;11.80;;
2644;SDS011;15377;48.540;9.268;2022-07-29T05:31:15;13.37;;;10.97;;
2644;SDS011;15377;48.540;9.268;2022-07-29T05:33:41;13.93;;;12.50;;
2644;SDS011;15377;48.540;9.268;2022-07-29T05:36:07;12.80;;;11.50;;
2644;SDS011;15377;48.540;9.268;2022-07-29T05:38:33;14.23;;;12.73;;
2644;SDS011;15377;48.540;9.268;2022-07-29T05:40:59;13.73;;;12.33;;
2644;SDS011;15377;48.540;9.268;2022-07-29T05:43:25;16.47;;;12.53;;
2644;SDS011;15377;48.540;9.268;2022-07-29T05:45:51;11.53;;;9.23;;
2644;SDS011;15377;48.540;9.268;2022-07-29T05:48:16;14.53;;;12.57;;
2644;SDS011;15377;48.540;9.268;2022-07-29T05:50:42;12.33;;;10.80;;
2644;SDS011;15377;48.540;9.268;2022-07-29T05:53:08;11.10;;;8.80;;
2644;SDS011;15377;48.540;9.268;2022-07-29T05:55:33;12.63;;;9.23;;
2644;SDS011;15377;48.540;9.268;2022-07-29T05:57:58;10.80;;;9.70;;
2644;SDS011;15377;48.540;9.268;2022-07-29T06:00:24;10.00;;;7.90;;
2644;SDS011;15377;48.540;9.268;2022-07-29T06:02:49;10.47;;;8.63;;
2644;SDS011;15377;48.540;9.268;2022-07-29T06:05:15;12.43;;;9.40;;
2644;SDS011;15377;48.540;9.268;2022-07-29T06:07:40;10.87;;;8.30;;
2644;SDS011;15377;48.540;9.268;2022-07-29T06:10:06;10.87;;;8.67;;
2644;SDS011;15377;48.540;9.268;2022-07-29T06:12:31;12.00;;;9.47;;
2644;SDS011;15377;48.540;9.268;2022-07-29T06:14:57;10.90;;;9.80;;
2644;SDS011;15377;48.540;9.268;2022-07-29T06:17:23;11.87;;;8.90;;
2644;SDS011;15377;48.540;9.268;2022-07-29T06:19:48;19.17;;;15.00;;
2644;SDS011;15377;48.540;9.268;2022-07-29T06:22:14;14.40;;;11.60;;
2644;SDS011;15377;48.540;9.268;2022-07-29T06:24:41;11.47;;;9.97;;
2644;SDS011;15377;48.540;9.268;2022-07-29T06:27:08;13.90;;;10.40;;
2644;SDS011;15377;48.540;9.268;2022-07-29T06:29:34;12.40;;;10.07;;
2644;SDS011;15377;48.540;9.268;2022-07-29T06:32:00;12.40;;;9.90;;
2644;SDS011;15377;48.540;9.268;2022-07-29T06:34:25;10.03;;;8.40;;
2644;SDS011;15377;48.540;9.268;2022-07-29T06:36:51;12.33;;;8.87;;
2644;SDS011;15377;48.540;9.268;2022-07-29T06:39:17;13.40;;;8.80;;
2644;SDS011;15377;48.540;9.268;2022-07-29T06:41:46;10.73;;;8.87;;
2644;SDS011;15377;48.540;9.268;2022-07-29T06:44:12;10.70;;;8.90;;
2644;SDS011;15377;48.540;9.268;2022-07-29T06:46:38;12.93;;;8.53;;
2644;SDS011;15377;48.540;9.268;2022-07-29T06:49:04;9.83;;;8.83;;
2644;SDS011;15377;48.540;9.268;2022-07-29T06:51:29;12.20;;;8.63;;
2644;SDS011;15377;48.540;9.268;2022-07-29T06:53:55;10.87;;;9.33;;
2644;SDS011;15377;48.540;9.268;2022-07-29T06:56:22;11.37;;;7.53;;
2644;SDS011;15377;48.540;9.268;2022-07-29T06:58:47;10.97;;;9.10;;
2644;SDS011;15377;48.540;9.268;2022-07-29T07:01:13;10.63;;;8.57;;
2644;SDS011;15377;48.540;9.268;2022-07-29T07:03:38;9.90;;;7.67;;
2644;SDS011;15377;48.540;9.268;2022-07-29T07:06:04;9.33;;;6.80;;
2644;SDS011;15377;48.540;9.268;2022-07-29T07:08:29;10.17;;;7.60;;
2644;SDS011;15377;48.540;9.268;2022-07-29T07:10:55;9.73;;;6.93;;
2644;SDS011;15377;48.540;9.268;2022-07-29T07:13:21;10.50;;;6.80;;
2644;SDS011;15377;48.540;9.268;2022-07-29T07:15:47;8.60;;;5.80;;
2644;SDS011;15377;48.540;9.268;2022-07-29T07:18:13;8.73;;;6.17;;
2644;SDS011;15377;48.540;9.268;2022-07-29T07:20:39;7.93;;;6.20;;
2644;SDS011;15377;48.540;9.268;2022-07-29T07:23:05;8.20;;;5.30;;
2644;SDS011;15377;48.540;9.268;2022-07-29T07:25:30;8.73;;;5.80;;
2644;SDS011;15377;48.540;9.268;2022-07-29T07:27:56;9.40;;;5.30;;
2644;SDS011;15377;48.540;9.268;2022-07-29T07:30:22;8.90;;;5.13;;
2644;SDS011;15377;48.540;9.268;2022-07-29T07:32:47;11.80;;;5.90;;
2644;SDS011;15377;48.540;9.268;2022-07-29T07:35:13;8.27;;;5.37;;
2644;SDS011;15377;48.540;9.268;2022-07-29T07:37:39;9.10;;;5.73;;
2644;SDS011;15377;48.540;9.268;2022-07-29T07:40:05;9.17;;;6.10;;
2644;SDS011;15377;48.540;9.268;2022-07-29T07:42:31;10.23;;;6.17;;
2644;SDS011;15377;48.540;9.268;2022-07-29T07:44:57;9.10;;;5.50;;
2644;SDS011;15377;48.540;9.268;2022-07-29T07:47:22;7.27;;;4.80;;
2644;SDS011;15377;48.540;9.268;2022-07-29T07:49:49;9.20;;;5.90;;
2644;SDS011;15377;48.540;9.268;2022-07-29T07:52:16;8.13;;;5.50;;
2644;SDS011;15377;48.540;9.268;2022-07-29T07:54:42;8.07;;;5.10;;
2644;SDS011;15377;48.540;9.268;2022-07-29T07:57:09;9.50;;;6.33;;
2644;SDS011;15377;48.540;9.268;2022-07-29T07:59:34;7.70;;;5.73;;
2644;SDS011;15377;48.540;9.268;2022-07-29T08:02:00;8.70;;;5.47;;
2644;SDS011;15377;48.540;9.268;2022-07-29T08:04:26;7.83;;;5.30;;
2644;SDS011;15377;48.540;9.268;2022-07-29T08:06:51;8.70;;;5.80;;
2644;SDS011;15377;48.540;9.268;2022-07-29T08:09:19;8.57;;;5.60;;
2644;SDS011;15377;48.540;9.268;2022-07-29T08:11:47;7.27;;;5.20;;
2644;SDS011;15377;48.540;9.268;2022-07-29T08:14:12;8.97;;;5.67;;
2644;SDS011;15377;48.540;9.268;2022-07-29T08:16:38;6.90;;;5.40;;
2644;SDS011;15377;48.540;9.268;2022-07-29T08:19:05;10.90;;;5.77;;
2644;SDS011;15377;48.540;9.268;2022-07-29T08:21:30;8.80;;;5.83;;
2644;SDS011;15377;48.540;9.268;2022-07-29T08:23:56;10.93;;;6.17;;
2644;SDS011;15377;48.540;9.268;2022-07-29T08:26:41;9.37;;;5.63;;
2644;SDS011;15377;48.540;9.268;2022-07-29T08:29:08;8.27;;;5.63;;
2644;SDS011;15377;48.540;9.268;2022-07-29T08:31:34;7.63;;;5.70;;
2644;SDS011;15377;48.540;9.268;2022-07-29T08:34:00;9.70;;;6.17;;
2644;SDS011;15377;48.540;9.268;2022-07-29T08:36:25;7.33;;;5.60;;
2644;SDS011;15377;48.540;9.268;2022-07-29T08:38:51;9.97;;;5.50;;
2644;SDS011;15377;48.540;9.268;2022-07-29T08:41:20;7.97;;;5.60;;
2644;SDS011;15377;48.540;9.268;2022-07-29T08:43:46;8.17;;;5.83;;
2644;SDS011;15377;48.540;9.268;2022-07-29T08:46:12;10.00;;;6.10;;
2644;SDS011;15377;48.540;9.268;2022-07-29T08:48:37;9.90;;;6.00;;
2644;SDS011;15377;48.540;9.268;2022-07-29T08:51:03;10.90;;;6.30;;
2644;SDS011;15377;48.540;9.268;2022-07-29T08:53:31;7.93;;;5.33;;
2644;SDS011;15377;48.540;9.268;2022-07-29T08:55:57;11.20;;;5.70;;
2644;SDS011;15377;48.540;9.268;2022-07-29T08:58:23;8.90;;;6.17;;
2644;SDS011;15377;48.540;9.268;2022-07-29T09:00:52;13.33;;;6.33;;
2644;SDS011;15377;48.540;9.268;2022-07-29T09:03:20;9.53;;;6.03;;
2644;SDS011;15377;48.540;9.268;2022-07-29T09:05:48;8.90;;;5.70;;
2644;SDS011;15377;48.540;9.268;2022-07-29T09:08:15;8.97;;;5.80;;
2644;SDS011;15377;48.540;9.268;2022-07-29T09:10:42;8.37;;;6.13;;
2644;SDS011;15377;48.540;9.268;2022-07-29T09:13:09;9.67;;;5.83;;
2644;SDS011;15377;48.540;9.268;2022-07-29T09:15:34;14.63;;;5.83;;
2644;SDS011;15377;48.540;9.268;2022-07-29T09:18:00;8.53;;;5.83;;
2644;SDS011;15377;48.540;9.268;2022-07-29T09:20:26;7.93;;;5.57;;
2644;SDS011;15377;48.540;9.268;2022-07-29T09:23:11;8.30;;;6.20;;
2644;SDS011;15377;48.540;9.268;2022-07-29T09:25:39;8.97;;;5.70;;
2644;SDS011;15377;48.540;9.268;2022-07-29T09:28:09;8.30;;;5.63;;
2644;SDS011;15377;48.540;9.268;2022-07-29T09:30:56;9.10;;;5.80;;
2644;SDS011;15377;48.540;9.268;2022-07-29T09:33:23;6.90;;;5.37;;
2644;SDS011;15377;48.540;9.268;2022-07-29T09:36:07;8.97;;;5.80;;
2644;SDS011;15377;48.540;9.268;2022-07-29T09:38:34;8.90;;;5.43;;
2644;SDS011;15377;48.540;9.268;2022-07-29T09:41:02;7.70;;;5.90;;
2644;SDS011;15377;48.540;9.268;2022-07-29T09:43:29;8.17;;;5.70;;
2644;SDS011;15377;48.540;9.268;2022-07-29T09:45:55;7.43;;;5.33;;
2644;SDS011;15377;48.540;9.268;2022-07-29T09:48:24;8.40;;;5.80;;
2644;SDS011;15377;48.540;9.268;2022-07-29T09:50:50;9.33;;;5.20;;
2644;SDS011;15377;48.540;9.268;2022-07-29T09:53:30;10.40;;;6.50;;
2644;SDS011;15377;48.540;9.268;2022-07-29T09:55:57;9.03;;;5.60;;
2644;SDS011;15377;48.540;9.268;2022-07-29T09:58:23;10.07;;;5.83;;
2644;SDS011;15377;48.540;9.268;2022-07-29T10:00:49;8.20;;;5.90;;
2644;SDS011;15377;48.540;9.268;2022-07-29T10:03:16;8.43;;;5.77;;
2644;SDS011;15377;48.540;9.268;2022-07-29T10:05:42;8.63;;;6.07;;
2644;SDS011;15377;48.540;9.268;2022-07-29T10:08:08;8.40;;;5.30;;
2644;SDS011;15377;48.540;9.268;2022-07-29T10:10:36;7.27;;;5.67;;
2644;SDS011;15377;48.540;9.268;2022-07-29T10:13:04;9.90;;;6.47;;
2644;SDS011;15377;48.540;9.268;2022-07-29T10:15:33;7.30;;;6.13;;
2644;SDS011;15377;48.540;9.268;2022-07-29T10:18:04;8.13;;;6.60;;
2644;SDS011;15377;48.540;9.268;2022-07-29T10:20:30;8.70;;;6.10;;
2644;SDS011;15377;48.540;9.268;2022-07-29T10:22:55;8.37;;;5.90;;
2644;SDS011;15377;48.540;9.268;2022-07-29T10:25:21;6.90;;;5.50;;
2644;SDS011;15377;48.540;9.268;2022-07-29T10:27:47;9.53;;;6.10;;
2644;SDS011;15377;48.540;9.268;2022-07-29T10:30:14;9.87;;;5.70;;
2644;SDS011;15377;48.540;9.268;2022-07-29T10:38:10;7.77;;;5.37;;
2644;SDS011;15377;48.540;9.268;2022-07-29T10:40:52;10.57;;;5.67;;
2644;SDS011;15377;48.540;9.268;2022-07-29T10:43:51;8.53;;;5.73;;
2644;SDS011;15377;48.540;9.268;2022-07-29T10:46:20;10.37;;;5.63;;
2644;SDS011;15377;48.540;9.268;2022-07-29T10:49:04;7.80;;;5.57;;
2644;SDS011;15377;48.540;9.268;2022-07-29T10:59:41;10.10;;;6.00;;
2644;SDS011;15377;48.540;9.268;2022-07-29T11:07:27;8.40;;;5.50;;
2644;SDS011;15377;48.540;9.268;2022-07-29T11:15:04;13.80;;;6.10;;
2644;SDS011;15377;48.540;9.268;2022-07-29T11:20:36;7.70;;;5.90;;
2644;SDS011;15377;48.540;9.268;2022-07-29T11:26:13;14.77;;;5.67;;
2644;SDS011;15377;48.540;9.268;2022-07-29T11:39:38;8.97;;;5.70;;
2644;SDS011;15377;48.540;9.268;2022-07-29T11:45:02;9.03;;;5.60;;
2644;SDS011;15377;48.540;9.268;2022-07-29T11:50:15;10.00;;;6.20;;
2644;SDS011;15377;48.540;9.268;2022-07-29T11:52:43;10.27;;;6.47;;
2644;SDS011;15377;48.540;9.268;2022-07-29T11:55:18;8.27;;;5.87;;
2644;SDS011;15377;48.540;9.268;2022-07-29T11:57:54;9.20;;;6.37;;
2644;SDS011;15377;48.540;9.268;2022-07-29T12:00:38;9.03;;;6.33;;
2644;SDS011;15377;48.540;9.268;2022-07-29T12:03:06;8.77;;;5.00;;
2644;SDS011;15377;48.540;9.268;2022-07-29T12:05:34;7.67;;;5.20;;
2644;SDS011;15377;48.540;9.268;2022-07-29T12:08:17;9.27;;;5.03;;
2644;SDS011;15377;48.540;9.268;2022-07-29T12:10:44;6.57;;;4.30;;
2644;SDS011;15377;48.540;9.268;2022-07-29T12:13:11;6.40;;;4.57;;
2644;SDS011;15377;48.540;9.268;2022-07-29T12:15:38;9.30;;;4.70;;
2644;SDS011;15377;48.540;9.268;2022-07-29T12:18:15;6.13;;;4.23;;
2644;SDS011;15377;48.540;9.268;2022-07-29T12:20:43;6.27;;;3.90;;
2644;SDS011;15377;48.540;9.268;2022-07-29T12:23:09;6.33;;;4.30;;
2644;SDS011;15377;48.540;9.268;2022-07-29T12:25:37;7.13;;;4.70;;
2644;SDS011;15377;48.540;9.268;2022-07-29T12:28:04;7.47;;;4.50;;
2644;SDS011;15377;48.540;9.268;2022-07-29T12:30:35;7.13;;;4.50;;
2644;SDS011;15377;48.540;9.268;2022-07-29T12:33:15;6.63;;;4.00;;
2644;SDS011;15377;48.540;9.268;2022-07-29T12:35:45;7.53;;;4.30;;
2644;SDS011;15377;48.540;9.268;2022-07-29T12:38:13;7.47;;;4.43;;
2644;SDS011;15377;48.540;9.268;2022-07-29T12:40:39;8.50;;;5.00;;
2644;SDS011;15377;48.540;9.268;2022-07-29T12:43:09;6.27;;;4.13;;
2644;SDS011;15377;48.540;9.268;2022-07-29T12:45:36;7.80;;;4.70;;
2644;SDS011;15377;48.540;9.268;2022-07-29T12:48:02;6.93;;;5.27;;
2644;SDS011;15377;48.540;9.268;2022-07-29T12:50:28;12.50;;;5.87;;
2644;SDS011;15377;48.540;9.268;2022-07-29T12:52:53;8.20;;;4.70;;
2644;SDS011;15377;48.540;9.268;2022-07-29T12:55:38;7.27;;;4.50;;
2644;SDS011;15377;48.540;9.268;2022-07-29T12:58:07;7.33;;;4.83;;
2644;SDS011;15377;48.540;9.268;2022-07-29T13:00:33;7.83;;;4.93;;
2644;SDS011;15377;48.540;9.268;2022-07-29T13:02:59;6.50;;;4.60;;
2644;SDS011;15377;48.540;9.268;2022-07-29T13:05:38;8.10;;;5.53;;
2644;SDS011;15377;48.540;9.268;2022-07-29T13:08:13;7.97;;;5.67;;
2644;SDS011;15377;48.540;9.268;2022-07-29T13:10:40;7.90;;;4.93;;
2644;SDS011;15377;48.540;9.268;2022-07-29T13:13:07;7.03;;;4.73;;
2644;SDS011;15377;48.540;9.268;2022-07-29T13:15:38;8.20;;;5.80;;
2644;SDS011;15377;48.540;9.268;2022-07-29T13:18:26;7.27;;;5.20;;
2644;SDS011;15377;48.540;9.268;2022-07-29T13:21:10;7.63;;;5.60;;
2644;SDS011;15377;48.540;9.268;2022-07-29T13:23:40;9.00;;;5.63;;
2644;SDS011;15377;48.540;9.268;2022-07-29T13:26:09;8.80;;;5.57;;
2644;SDS011;15377;48.540;9.268;2022-07-29T13:28:38;8.07;;;5.77;;
2644;SDS011;15377;48.540;9.268;2022-07-29T13:31:04;8.57;;;5.77;;
2644;SDS011;15377;48.540;9.268;2022-07-29T13:33:30;7.33;;;5.23;;
2644;SDS011;15377;48.540;9.268;2022-07-29T13:35:55;7.13;;;5.20;;
2644;SDS011;15377;48.540;9.268;2022-07-29T13:38:21;7.83;;;5.40;;
2644;SDS011;15377;48.540;9.268;2022-07-29T13:40:47;7.63;;;5.20;;
2644;SDS011;15377;48.540;9.268;2022-07-29T13:43:12;6.07;;;4.77;;
2644;SDS011;15377;48.540;9.268;2022-07-29T13:45:38;13.80;;;6.30;;
2644;SDS011;15377;48.540;9.268;2022-07-29T13:48:03;18.23;;;9.57;;
2644;SDS011;15377;48.540;9.268;2022-07-29T13:50:29;18.03;;;10.23;;
2644;SDS011;15377;48.540;9.268;2022-07-29T13:52:54;13.13;;;10.30;;
2644;SDS011;15377;48.540;9.268;2022-07-29T13:55:20;16.43;;;11.80;;
2644;SDS011;15377;48.540;9.268;2022-07-29T13:57:45;14.57;;;11.83;;
2644;SDS011;15377;48.540;9.268;2022-07-29T14:00:12;12.43;;;10.30;;
2644;SDS011;15377;48.540;9.268;2022-07-29T14:02:37;13.80;;;10.40;;
2644;SDS011;15377;48.540;9.268;2022-07-29T14:05:03;14.80;;;11.43;;
2644;SDS011;15377;48.540;9.268;2022-07-29T14:07:32;14.23;;;10.37;;
2644;SDS011;15377;48.540;9.268;2022-07-29T14:09:58;14.40;;;12.03;;
2644;SDS011;15377;48.540;9.268;2022-07-29T14:12:23;14.67;;;12.07;;
2644;SDS011;15377;48.540;9.268;2022-07-29T14:14:49;16.17;;;14.43;;
2644;SDS011;15377;48.540;9.268;2022-07-29T14:17:14;14.17;;;12.67;;
2644;SDS011;15377;48.540;9.268;2022-07-29T14:19:42;20.47;;;17.30;;
2644;SDS011;15377;48.540;9.268;2022-07-29T14:22:08;19.10;;;16.30;;
2644;SDS011;15377;48.540;9.268;2022-07-29T14:24:33;14.30;;;12.80;;
2644;SDS011;15377;48.540;9.268;2022-07-29T14:26:59;14.50;;;12.70;;
2644;SDS011;15377;48.540;9.268;2022-07-29T14:29:25;11.20;;;9.77;;
2644;SDS011;15377;48.540;9.268;2022-07-29T14:31:50;11.60;;;9.97;;
2644;SDS011;15377;48.540;9.268;2022-07-29T14:34:16;13.57;;;10.00;;
2644;SDS011;15377;48.540;9.268;2022-07-29T14:36:41;11.50;;;9.97;;
2644;SDS011;15377;48.540;9.268;2022-07-29T14:39:07;11.83;;;10.63;;
2644;SDS011;15377;48.540;9.268;2022-07-29T14:41:32;12.80;;;11.50;;
2644;SDS011;15377;48.540;9.268;2022-07-29T14:43:58;11.97;;;10.03;;
2644;SDS011;15377;48.540;9.268;2022-07-29T14:46:25;12.03;;;10.80;;
2644;SDS011;15377;48.540;9.268;2022-07-29T14:48:53;12.57;;;10.20;;
2644;SDS011;15377;48.540;9.268;2022-07-29T14:51:19;13.43;;;10.87;;
2644;SDS011;15377;48.540;9.268;2022-07-29T14:53:44;11.90;;;10.47;;
2644;SDS011;15377;48.540;9.268;2022-07-29T14:56:10;12.13;;;10.87;;
2644;SDS011;15377;48.540;9.268;2022-07-29T14:58:35;13.40;;;12.00;;
2644;SDS011;15377;48.540;9.268;2022-07-29T15:01:01;12.50;;;11.30;;
2644;SDS011;15377;48.540;9.268;2022-07-29T15:03:26;10.03;;;8.87;;
2644;SDS011;15377;48.540;9.268;2022-07-29T15:05:55;12.87;;;11.23;;
2644;SDS011;15377;48.540;9.268;2022-07-29T15:08:20;13.23;;;11.00;;
2644;SDS011;15377;48.540;9.268;2022-07-29T15:10:46;13.67;;;12.20;;
2644;SDS011;15377;48.540;9.268;2022-07-29T15:13:11;9.80;;;8.77;;
2644;SDS011;15377;48.540;9.268;2022-07-29T15:15:37;13.47;;;10.43;;
2644;SDS011;15377;48.540;9.268;2022-07-29T15:18:03;12.00;;;9.83;;
2644;SDS011;15377;48.540;9.268;2022-07-29T15:20:28;12.67;;;11.40;;
2644;SDS011;15377;48.540;9.268;2022-07-29T15:22:54;13.10;;;11.27;;
2644;SDS011;15377;48.540;9.268;2022-07-29T15:25:21;11.33;;;10.13;;
2644;SDS011;15377;48.540;9.268;2022-07-29T15:27:47;11.70;;;9.40;;
2644;SDS011;15377;48.540;9.268;2022-07-29T15:30:12;11.00;;;9.90;;
2644;SDS011;15377;48.540;9.268;2022-07-29T15:32:40;13.23;;;10.23;;
2644;SDS011;15377;48.540;9.268;2022-07-29T15:35:05;11.33;;;9.40;;
2644;SDS011;15377;48.540;9.268;2022-07-29T15:37:31;11.93;;;10.50;;
2644;SDS011;15377;48.540;9.268;2022-07-29T15:39:59;12.77;;;10.50;;
2644;SDS011;15377;48.540;9.268;2022-07-29T15:42:24;11.30;;;9.80;;
2644;SDS011;15377;48.540;9.268;2022-07-29T15:44:49;11.10;;;10.00;;
2644;SDS011;15377;48.540;9.268;2022-07-29T15:47:15;11.40;;;9.07;;